Stations météo

réclame
Mon MeteoGroup
Ripoll, Espagne (8118): Température de l'air & dewpoint: 11.11.2017 18:00:00 - 17.11.2017 18:00:00 (CET)Ripoll, Espagne (8118): Vitesse du vent & gusts: 11.11.2017 18:00:00 - 17.11.2017 18:00:00 (CET)Ripoll, Espagne (8118): Direction du vent: 11.11.2017 18:00:00 - 17.11.2017 18:00:00 (CET)Ripoll, Espagne (8118): Quantités de précipitations: 11.11.2017 18:00:00 - 17.11.2017 18:00:00 (CET)
Date & Time tt [°C] td [°C] ff [km/h] ff [knt] fx [km/h] fx [knt] dd rr [mm]
17.11.2017 18:00:00 - - - - - - - -
17.11.2017 17:00:00 12,0 -0,3 1 0 14 7 ESE 0,0
17.11.2017 16:00:00 15,7 0,6 7 4 16 9 S 0,0
17.11.2017 15:00:00 16,5 1,7 10 5 16 9 S 0,0
17.11.2017 14:00:00 15,9 0,9 11 6 20 11 SSE 0,0
17.11.2017 13:00:00 16,2 2,3 8 5 15 8 S -
17.11.2017 12:00:00 10,5 2,7 0 0 5 3 SE 0,0
17.11.2017 11:00:00 6,7 2,5 0 0 3 2 ESE 0,0
17.11.2017 10:00:00 1,5 0,4 0 0 7 4 SE 0,0
17.11.2017 09:00:00 -1,3 -2,0 1 1 10 5 NNW 0,0
17.11.2017 08:00:00 -1,6 -2,2 0 0 9 5 WNW 0,0
17.11.2017 07:00:00 -1,7 -2,2 0 0 10 5 NNE -
17.11.2017 06:00:00 -1,7 -2,5 0 0 7 4 NNE 0,0
17.11.2017 05:00:00 -1,5 -2,2 1 1 6 4 N 0,0
17.11.2017 04:00:00 -1,2 -2,0 1 0 8 5 N 0,0
17.11.2017 03:00:00 -1,1 -2,0 0 0 5 3 NW 0,0
17.11.2017 02:00:00 -0,7 -1,7 1 0 8 4 NNE 0,0
17.11.2017 01:00:00 -0,8 -2,2 0 0 1 0 N -
17.11.2017 00:00:00 0,0 -1,4 0 0 6 4 N 0,0
16.11.2017 23:00:00 0,6 -1,2 1 1 6 4 NNW 0,0
16.11.2017 22:00:00 1,4 -1,0 1 0 6 4 NW 0,0
16.11.2017 21:00:00 2,1 -0,7 0 0 9 5 ESE 0,0
16.11.2017 20:00:00 3,4 0,0 0 0 6 4 ENE 0,0
16.11.2017 19:00:00 4,9 -0,3 0 0 3 1 NNE -
16.11.2017 18:00:00 7,4 -0,3 0 0 6 3 SE 0,0
16.11.2017 17:00:00 11,2 -1,0 4 2 15 8 S 0,0
16.11.2017 16:00:00 13,9 -0,3 7 4 16 9 S 0,0
16.11.2017 15:00:00 14,4 0,0 8 5 16 9 S 0,0
16.11.2017 14:00:00 14,4 0,0 9 5 16 8 S 0,0
16.11.2017 13:00:00 13,6 0,2 6 4 14 7 SSE -
16.11.2017 12:00:00 9,7 0,9 1 0 4 2 SSE 0,0
16.11.2017 11:00:00 5,2 0,4 0 0 3 2 N 0,0
16.11.2017 10:00:00 0,3 -1,0 0 0 4 2 E 0,0
16.11.2017 09:00:00 -3,4 -4,2 1 0 7 4 NNE 0,0
16.11.2017 08:00:00 -3,8 -4,8 0 0 3 2 NNE 0,0
16.11.2017 07:00:00 -3,4 -4,2 0 0 9 5 NNW -
16.11.2017 06:00:00 -3,2 -4,2 1 1 7 4 N 0,0
16.11.2017 05:00:00 -2,8 -3,9 0 0 5 3 N 0,0
16.11.2017 04:00:00 -2,6 -3,9 0 0 3 2 N 0,0
16.11.2017 03:00:00 -2,2 -3,6 0 0 5 3 WNW 0,0
16.11.2017 02:00:00 - - - - - - - -
16.11.2017 01:00:00 -1,0 -3,0 0 0 8 4 ENE -
16.11.2017 00:00:00 -0,4 -3,0 0 0 9 5 N 0,0
15.11.2017 23:00:00 0,4 -2,5 2 1 10 5 NE 0,0
15.11.2017 22:00:00 1,4 -2,2 1 1 7 4 NNW 0,0
15.11.2017 21:00:00 2,4 -2,0 0 0 6 3 NNE 0,0
15.11.2017 20:00:00 3,7 -1,4 0 0 4 2 N 0,0
15.11.2017 19:00:00 5,6 -1,7 0 0 5 3 S -
15.11.2017 18:00:00 8,0 -3,0 0 0 5 3 SE 0,0
15.11.2017 17:00:00 12,2 -3,3 5 3 12 7 S 0,0
15.11.2017 16:00:00 14,4 -3,9 8 4 17 9 S 0,0
15.11.2017 15:00:00 14,9 -3,0 10 6 19 10 S 0,0
15.11.2017 14:00:00 14,8 -3,6 10 6 18 10 S 0,0
15.11.2017 13:00:00 13,9 -1,7 9 5 41 22 S -
15.11.2017 12:00:00 9,7 -1,4 1 0 5 3 S 0,0
15.11.2017 11:00:00 4,9 -1,7 1 1 5 3 SSE 0,0
15.11.2017 10:00:00 -0,1 -2,2 1 0 5 3 E 0,0
15.11.2017 09:00:00 -4,0 -5,4 1 0 8 5 NE 0,0
15.11.2017 08:00:00 -4,6 -5,7 2 1 11 6 NNE 0,0
15.11.2017 07:00:00 -4,5 -5,7 1 1 8 5 NNE -
15.11.2017 06:00:00 -4,0 -5,4 0 0 8 4 NNW 0,0
15.11.2017 05:00:00 -3,8 -5,1 0 0 10 5 ESE 0,0
15.11.2017 04:00:00 -3,5 -4,8 1 0 9 5 NW 0,0
15.11.2017 03:00:00 -3,3 -4,8 1 1 9 5 NNW 0,0
15.11.2017 02:00:00 -3,0 -4,5 1 0 7 4 NNW 0,0
15.11.2017 01:00:00 -2,4 -4,2 1 1 6 4 NNW -
15.11.2017 00:00:00 -2,1 -3,9 0 0 5 3 NNE 0,0
14.11.2017 23:00:00 -1,3 -3,6 1 0 5 3 N 0,0
14.11.2017 22:00:00 -1,0 -3,6 0 0 4 2 N 0,0
14.11.2017 21:00:00 0,0 -3,3 0 0 6 4 ESE 0,0
14.11.2017 20:00:00 0,9 -3,3 0 0 3 2 NE 0,0
14.11.2017 19:00:00 2,8 -2,7 0 0 5 3 N -
14.11.2017 18:00:00 5,2 -2,7 1 1 6 3 N 0,0
14.11.2017 17:00:00 8,7 -4,2 4 2 17 9 S 0,0
14.11.2017 16:00:00 11,6 -5,4 6 3 23 12 S 0,0
14.11.2017 15:00:00 11,7 -6,7 11 6 23 13 S 0,0
14.11.2017 14:00:00 12,1 -6,0 9 5 26 14 S 0,0
14.11.2017 13:00:00 11,6 -4,5 12 7 22 12 S -
14.11.2017 12:00:00 9,8 -2,5 5 3 11 6 S 0,0
14.11.2017 11:00:00 4,8 -2,5 1 1 10 5 E 0,0
14.11.2017 10:00:00 0,2 -4,5 3 2 11 6 SE 0,0
14.11.2017 09:00:00 -3,4 -6,0 0 0 5 3 NW 0,0
14.11.2017 08:00:00 -3,7 -6,7 1 0 5 3 E 0,0
14.11.2017 07:00:00 -3,1 -6,4 0 0 7 4 ENE -
14.11.2017 06:00:00 -2,8 -6,4 0 0 6 3 N 0,0
14.11.2017 05:00:00 -2,7 -6,4 0 0 6 3 SW 0,0
14.11.2017 04:00:00 -1,8 -6,0 1 1 10 5 SSE 0,0
14.11.2017 03:00:00 -1,7 -6,4 1 1 7 4 SW 0,0
14.11.2017 02:00:00 -1,0 -6,4 1 1 7 4 SE 0,0
14.11.2017 01:00:00 -0,5 -7,5 2 1 8 5 S -
14.11.2017 00:00:00 1,1 -7,8 2 1 16 9 ESE 0,0
13.11.2017 23:00:00 2,2 -8,6 4 2 16 9 SSE 0,0
13.11.2017 22:00:00 3,9 -8,6 9 5 18 10 SSE 0,0
13.11.2017 21:00:00 6,3 -9,0 5 3 34 18 S 0,0
13.11.2017 20:00:00 8,5 -9,0 11 6 43 23 NNE 0,0
13.11.2017 19:00:00 8,7 -8,2 10 6 54 29 NW -
13.11.2017 18:00:00 7,0 -7,5 10 5 47 26 N 0,0
13.11.2017 17:00:00 7,5 -7,8 12 7 38 20 NW 0,0
13.11.2017 16:00:00 8,8 -6,7 11 6 39 21 NNW 0,0
13.11.2017 15:00:00 8,9 -5,7 8 5 57 31 N 0,0
13.11.2017 14:00:00 9,2 -5,4 10 5 51 28 N 0,0
13.11.2017 13:00:00 8,7 -5,7 13 7 55 30 NNE -
13.11.2017 12:00:00 8,3 -6,7 10 5 52 28 NNW 0,0
13.11.2017 11:00:00 7,8 -7,1 15 8 55 30 NNW 0,0
13.11.2017 10:00:00 7,1 -7,5 11 6 56 30 N 0,0
13.11.2017 09:00:00 6,0 -7,8 15 8 49 26 NNW 0,0
13.11.2017 08:00:00 6,4 -7,8 11 6 79 43 N 0,0
13.11.2017 07:00:00 7,0 -7,8 12 6 58 31 NNW -
13.11.2017 06:00:00 7,1 -6,7 5 3 28 15 N 0,0
13.11.2017 05:00:00 9,1 -6,0 11 6 40 22 NNW 0,0
13.11.2017 04:00:00 9,1 -5,1 1 1 65 35 SE 0,0
13.11.2017 03:00:00 8,8 -1,7 8 5 37 20 N 0,0
13.11.2017 02:00:00 3,2 2,9 1 1 16 8 SE 0,0
13.11.2017 01:00:00 3,1 2,9 2 1 13 7 SSW -
13.11.2017 00:00:00 2,8 2,3 1 1 9 5 S 0,0
12.11.2017 23:00:00 3,1 2,3 0 0 11 6 E 0,0
12.11.2017 22:00:00 3,5 2,7 1 0 6 4 N 0,0
12.11.2017 21:00:00 4,6 3,4 2 1 13 7 S 0,0
12.11.2017 20:00:00 5,8 4,3 1 1 19 10 SSW 0,0
12.11.2017 19:00:00 6,6 4,6 1 1 9 5 S -
12.11.2017 18:00:00 8,3 4,8 1 1 11 6 S 0,0
12.11.2017 17:00:00 10,2 5,3 8 4 18 10 SSW 0,0
12.11.2017 16:00:00 12,1 5,9 10 6 21 12 S 0,0
12.11.2017 15:00:00 12,6 6,8 8 4 19 10 S 0,0
12.11.2017 14:00:00 11,8 6,5 9 5 22 12 S 0,0
12.11.2017 13:00:00 9,9 6,2 11 6 24 13 S -
12.11.2017 12:00:00 8,5 6,2 9 5 14 8 S 0,0
12.11.2017 11:00:00 5,1 4,6 4 2 8 5 S 0,0
12.11.2017 10:00:00 3,2 2,9 1 1 9 5 NNW 0,0
12.11.2017 09:00:00 1,6 1,5 2 1 8 4 NW 0,0
12.11.2017 08:00:00 1,0 0,6 1 0 4 2 N 0,0
12.11.2017 07:00:00 0,7 0,4 0 0 7 4 WNW -
12.11.2017 06:00:00 0,6 0,4 1 0 8 4 NNE 0,0
12.11.2017 05:00:00 0,1 -0,3 0 0 5 3 NW 0,0
12.11.2017 04:00:00 0,7 0,2 0 0 6 3 N 0,0
12.11.2017 03:00:00 1,0 0,4 0 0 5 3 NNW 0,0
12.11.2017 02:00:00 1,6 1,1 1 0 7 4 SE 0,0
12.11.2017 01:00:00 2,2 1,5 0 0 5 3 N -
12.11.2017 00:00:00 2,6 1,7 0 0 7 4 NNW 0,0
11.11.2017 23:00:00 3,8 2,9 1 1 6 3 WNW 0,0
11.11.2017 22:00:00 4,2 3,0 0 0 3 2 ESE 0,0
11.11.2017 21:00:00 4,5 3,0 0 0 2 1 WNW 0,0
11.11.2017 20:00:00 5,2 3,2 0 0 5 3 S 0,0
11.11.2017 19:00:00 6,3 3,4 0 0 6 4 NNE -
11.11.2017 18:00:00 7,9 3,8 2 1 11 6 ESE 0,0

tt = Température de l'air
td = dewpoint
ff = Vitesse du vent
fx = gusts
dd = Direction du vent
rr = Quantités de précipitations

stations d'obs. à proximité